createdAt,value
2018-01-18T00:01:38.161Z,3.57
2018-01-18T00:04:06.399Z,3.07
2018-01-18T00:06:34.745Z,3.80
2018-01-18T00:09:05.319Z,4.30
2018-01-18T00:11:33.613Z,3.60
2018-01-18T00:14:01.994Z,4.20
2018-01-18T00:16:30.389Z,3.53
2018-01-18T00:18:59.681Z,3.80
2018-01-18T00:21:27.924Z,4.43
2018-01-18T00:23:56.192Z,3.77
2018-01-18T00:26:24.515Z,3.20
2018-01-18T00:28:52.749Z,2.70
2018-01-18T00:31:21.343Z,4.20
2018-01-18T00:33:49.577Z,3.13
2018-01-18T00:36:17.821Z,3.67
2018-01-18T00:38:46.495Z,4.10
2018-01-18T00:41:14.741Z,3.33
2018-01-18T00:43:42.988Z,2.70
2018-01-18T00:46:12.009Z,3.27
2018-01-18T00:48:40.245Z,3.37
2018-01-18T00:51:08.481Z,2.40
2018-01-18T00:53:38.926Z,3.90
2018-01-18T00:56:07.222Z,3.73
2018-01-18T00:58:35.586Z,2.60
2018-01-18T01:01:03.845Z,2.70
2018-01-18T01:03:32.238Z,3.13
2018-01-18T01:06:00.458Z,3.43
2018-01-18T01:08:33.433Z,3.80
2018-01-18T01:11:01.806Z,3.43
2018-01-18T01:13:30.041Z,2.73
2018-01-18T01:15:58.800Z,3.17
2018-01-18T01:18:27.037Z,2.97
2018-01-18T01:20:55.308Z,3.10
2018-01-18T01:23:23.581Z,2.80
2018-01-18T01:25:51.818Z,2.97
2018-01-18T01:28:20.129Z,3.47
2018-01-18T01:30:48.470Z,2.87
2018-01-18T01:33:16.894Z,2.77
2018-01-18T01:35:45.469Z,3.77
2018-01-18T01:38:14.985Z,2.80
2018-01-18T01:40:44.191Z,2.67
2018-01-18T01:43:13.482Z,3.70
2018-01-18T01:45:42.801Z,2.20
2018-01-18T01:48:11.039Z,3.03
2018-01-18T01:50:39.622Z,2.57
2018-01-18T01:53:07.884Z,3.47
2018-01-18T01:55:36.125Z,2.27
2018-01-18T01:58:04.359Z,2.57
2018-01-18T02:00:32.853Z,2.30
2018-01-18T02:03:01.094Z,2.63
2018-01-18T02:05:29.329Z,2.63
2018-01-18T02:07:57.822Z,2.47
2018-01-18T02:10:26.056Z,2.47
2018-01-18T02:12:54.349Z,1.97
2018-01-18T02:15:22.614Z,2.80
2018-01-18T02:17:50.857Z,1.97
2018-01-18T02:20:19.085Z,2.00
2018-01-18T02:22:47.629Z,2.67
2018-01-18T02:25:15.961Z,2.50
2018-01-18T02:27:44.966Z,2.97
2018-01-18T02:30:13.992Z,2.23
2018-01-18T02:32:42.226Z,2.30
2018-01-18T02:35:10.462Z,2.27
2018-01-18T02:37:38.726Z,1.63
2018-01-18T02:40:06.965Z,1.90
2018-01-18T02:42:35.201Z,1.80
2018-01-18T02:45:03.962Z,1.97
2018-01-18T02:47:32.197Z,2.30
2018-01-18T02:50:00.442Z,2.30
2018-01-18T02:52:28.702Z,1.90
2018-01-18T02:54:57.089Z,2.27
2018-01-18T02:57:25.322Z,2.13
2018-01-18T02:59:53.584Z,2.47
2018-01-18T03:02:22.581Z,1.70
2018-01-18T03:04:51.576Z,2.03
2018-01-18T03:07:20.913Z,2.13
2018-01-18T03:09:49.377Z,2.37
2018-01-18T03:12:17.615Z,2.33
2018-01-18T03:14:45.873Z,1.93
2018-01-18T03:17:14.113Z,2.23
2018-01-18T03:19:42.357Z,2.67
2018-01-18T03:22:10.621Z,1.70
2018-01-18T03:24:38.861Z,2.60
2018-01-18T03:27:07.090Z,3.10
2018-01-18T03:29:35.438Z,1.97
2018-01-18T03:32:03.681Z,2.40
2018-01-18T03:34:31.918Z,1.97
2018-01-18T03:37:00.543Z,1.50
2018-01-18T03:39:28.778Z,1.70
2018-01-18T03:41:57.020Z,1.87
2018-01-18T03:44:25.269Z,1.90
2018-01-18T03:46:53.505Z,1.63
2018-01-18T03:49:21.745Z,2.07
2018-01-18T03:51:50.513Z,1.30
2018-01-18T03:54:18.749Z,1.87
2018-01-18T03:56:46.985Z,1.87
2018-01-18T03:59:15.250Z,2.10
2018-01-18T04:01:43.478Z,1.93
2018-01-18T04:04:11.717Z,1.90
2018-01-18T04:06:40.005Z,1.93
2018-01-18T04:09:08.221Z,2.23
2018-01-18T04:11:36.886Z,2.10
2018-01-18T04:14:05.957Z,2.03
2018-01-18T04:16:34.197Z,1.63
2018-01-18T04:19:02.425Z,1.90
2018-01-18T04:21:30.686Z,2.00
2018-01-18T04:23:58.929Z,2.20
2018-01-18T04:26:27.161Z,1.43
2018-01-18T04:28:56.194Z,1.60
2018-01-18T04:31:24.436Z,1.63
2018-01-18T04:33:52.672Z,1.93
2018-01-18T04:36:21.338Z,2.17
2018-01-18T04:38:49.570Z,1.70
2018-01-18T04:41:17.805Z,2.00
2018-01-18T04:43:46.062Z,3.17
2018-01-18T04:46:14.302Z,1.80
2018-01-18T04:48:42.540Z,1.70
2018-01-18T04:51:10.804Z,2.27
2018-01-18T04:53:39.050Z,2.00
2018-01-18T04:56:07.285Z,2.50
2018-01-18T04:58:35.947Z,1.93
2018-01-18T05:01:04.165Z,2.33
2018-01-18T05:03:33.161Z,1.53
2018-01-18T05:06:02.194Z,3.33
2018-01-18T05:08:30.429Z,2.20
2018-01-18T05:10:58.669Z,1.77
2018-01-18T05:13:27.318Z,2.33
2018-01-18T05:15:56.318Z,2.50
2018-01-18T05:18:24.669Z,2.30
2018-01-18T05:20:53.819Z,1.50
2018-01-18T05:23:22.037Z,2.70
2018-01-18T05:25:51.034Z,3.27
2018-01-18T05:28:20.069Z,2.70
2018-01-18T05:30:48.301Z,1.67
2018-01-18T05:33:16.542Z,2.87
2018-01-18T05:35:45.774Z,2.37
2018-01-18T05:38:14.785Z,2.20
2018-01-18T05:40:43.781Z,3.40
2018-01-18T05:43:12.209Z,2.30
2018-01-18T05:45:40.446Z,2.60
2018-01-18T05:48:08.697Z,2.20
2018-01-18T05:50:36.949Z,2.20
2018-01-18T05:53:05.185Z,2.80
2018-01-18T05:55:33.422Z,2.40
2018-01-18T05:58:03.625Z,2.20
2018-01-18T06:00:31.877Z,2.80
2018-01-18T06:03:00.106Z,2.30
2018-01-18T06:05:29.444Z,2.60
2018-01-18T06:07:57.673Z,2.50
2018-01-18T06:10:25.930Z,2.23
2018-01-18T06:12:54.180Z,2.90
2018-01-18T06:15:22.618Z,2.57
2018-01-18T06:17:51.125Z,1.77
2018-01-18T06:20:19.375Z,1.30
2018-01-18T06:22:48.382Z,1.87
2018-01-18T06:25:16.618Z,2.13
2018-01-18T06:27:45.172Z,1.90
2018-01-18T06:30:13.409Z,1.90
2018-01-18T06:32:41.642Z,1.50
2018-01-18T06:35:09.918Z,2.47
2018-01-18T06:37:38.145Z,1.57
2018-01-18T06:40:06.389Z,1.30
2018-01-18T06:42:34.649Z,1.30
2018-01-18T06:45:02.883Z,1.03
2018-01-18T06:47:31.121Z,1.37
2018-01-18T06:49:59.650Z,1.40
2018-01-18T06:52:27.886Z,1.20
2018-01-18T06:54:56.119Z,1.10
2018-01-18T06:57:24.377Z,1.13
2018-01-18T06:59:52.609Z,1.27
2018-01-18T07:02:20.849Z,1.50
2018-01-18T07:04:49.109Z,1.20
2018-01-18T07:07:17.653Z,1.33
2018-01-18T07:09:46.657Z,1.60
2018-01-18T07:12:15.187Z,1.50
2018-01-18T07:14:43.434Z,1.20
2018-01-18T07:17:12.702Z,1.33
2018-01-18T07:19:41.074Z,1.00
2018-01-18T07:22:09.305Z,1.03
2018-01-18T07:24:37.533Z,1.10
2018-01-18T07:27:06.559Z,1.13
2018-01-18T07:29:34.859Z,0.90
2018-01-18T07:32:03.082Z,1.00
2018-01-18T07:34:31.710Z,1.07
2018-01-18T07:37:00.043Z,1.10
2018-01-18T07:39:29.041Z,1.20
2018-01-18T07:41:58.067Z,1.10
2018-01-18T07:44:26.313Z,1.10
2018-01-18T07:46:54.549Z,1.00
2018-01-18T07:49:23.025Z,1.10
2018-01-18T07:51:51.247Z,1.00
2018-01-18T07:54:20.241Z,1.10
2018-01-18T07:56:55.166Z,0.90
2018-01-18T07:59:23.409Z,0.90
2018-01-18T08:01:51.652Z,0.93
2018-01-18T08:04:25.473Z,1.00
2018-01-18T08:06:53.709Z,0.90
2018-01-18T08:09:21.946Z,0.80
2018-01-18T08:11:50.208Z,1.23
2018-01-18T08:14:18.493Z,0.90
2018-01-18T08:16:46.802Z,0.80
2018-01-18T08:19:16.681Z,0.90
2018-01-18T08:21:44.910Z,0.83
2018-01-18T08:24:13.149Z,0.80
2018-01-18T08:26:41.410Z,0.90
2018-01-18T08:29:09.650Z,0.87
2018-01-18T08:31:39.097Z,0.90
2018-01-18T08:34:07.371Z,0.80
2018-01-18T08:36:35.640Z,0.93
2018-01-18T08:39:03.909Z,0.73
2018-01-18T08:41:32.386Z,0.90
2018-01-18T08:44:00.621Z,0.80
2018-01-18T08:46:28.860Z,0.80
2018-01-18T08:48:57.121Z,0.80
2018-01-18T08:51:25.353Z,0.80
2018-01-18T08:53:53.593Z,0.80
2018-01-18T08:56:21.849Z,0.70
2018-01-18T08:58:50.086Z,0.80
2018-01-18T09:01:19.085Z,1.00
2018-01-18T09:03:48.733Z,1.00
2018-01-18T09:06:16.973Z,1.00
2018-01-18T09:08:45.206Z,0.83
2018-01-18T09:11:13.473Z,0.93
2018-01-18T09:13:41.801Z,1.00
2018-01-18T09:16:10.035Z,0.70
2018-01-18T09:18:38.295Z,0.80
2018-01-18T09:21:06.981Z,1.00
2018-01-18T09:23:35.201Z,1.00
2018-01-18T09:26:03.825Z,0.77
2018-01-18T09:28:32.065Z,0.80
2018-01-18T09:31:00.294Z,0.93
2018-01-18T09:33:28.552Z,0.77
2018-01-18T09:35:56.789Z,0.80
2018-01-18T09:38:25.030Z,0.97
2018-01-18T09:40:55.273Z,0.90
2018-01-18T09:43:23.510Z,1.00
2018-01-18T09:45:51.745Z,1.00
2018-01-18T09:48:21.157Z,0.80
2018-01-18T09:50:49.394Z,0.80
2018-01-18T09:53:17.634Z,0.87
2018-01-18T09:55:45.897Z,0.80
2018-01-18T09:58:14.130Z,1.00
2018-01-18T10:00:42.366Z,1.00
2018-01-18T10:03:10.640Z,0.93
2018-01-18T10:05:38.890Z,1.07
2018-01-18T10:08:07.929Z,0.83
2018-01-18T10:10:36.212Z,0.93
2018-01-18T10:13:04.444Z,0.80
2018-01-18T10:15:32.735Z,1.00
2018-01-18T10:18:00.993Z,0.90
2018-01-18T10:20:29.225Z,0.90
2018-01-18T10:22:57.905Z,1.13
2018-01-18T10:25:26.167Z,1.00
2018-01-18T10:27:54.410Z,0.90
2018-01-18T10:30:22.645Z,1.00
2018-01-18T10:32:52.217Z,1.10
2018-01-18T10:35:20.453Z,0.80
2018-01-18T10:37:48.787Z,0.70
2018-01-18T10:40:17.027Z,0.97
2018-01-18T10:42:45.278Z,0.80
2018-01-18T10:45:13.511Z,1.10
2018-01-18T10:47:41.782Z,0.93
2018-01-18T10:50:10.210Z,1.10
2018-01-18T10:52:39.205Z,0.80
2018-01-18T10:55:08.945Z,1.20
2018-01-18T10:57:37.321Z,1.00
2018-01-18T11:00:05.619Z,0.83
2018-01-18T11:02:33.904Z,0.93
2018-01-18T11:05:02.380Z,1.03
2018-01-18T11:07:31.526Z,1.07
2018-01-18T11:10:00.045Z,1.10
2018-01-18T11:12:28.314Z,0.97
2018-01-18T11:14:56.523Z,1.50
2018-01-18T11:17:25.077Z,1.27
2018-01-18T11:19:53.309Z,0.90
2018-01-18T11:22:22.317Z,0.80
2018-01-18T11:24:50.604Z,0.80
2018-01-18T11:27:19.620Z,0.90
2018-01-18T11:29:47.962Z,0.80
2018-01-18T11:32:16.212Z,0.83
2018-01-18T11:34:44.741Z,0.90
2018-01-18T11:37:13.745Z,1.00
2018-01-18T11:39:42.149Z,1.10
2018-01-18T11:42:10.390Z,0.80
2018-01-18T11:44:38.626Z,0.70
2018-01-18T11:47:06.990Z,0.90
2018-01-18T11:49:35.214Z,0.80
2018-01-18T11:52:03.450Z,0.80
2018-01-18T11:54:31.711Z,0.80
2018-01-18T11:56:59.957Z,0.80
2018-01-18T11:59:28.211Z,0.90
2018-01-18T12:01:57.559Z,0.90
2018-01-18T12:04:25.793Z,0.87
2018-01-18T12:06:54.041Z,0.90
2018-01-18T12:09:23.078Z,0.80
2018-01-18T12:11:51.439Z,0.80
2018-01-18T12:14:19.905Z,0.97
2018-01-18T12:16:48.154Z,0.90
2018-01-18T12:19:16.668Z,0.87
2018-01-18T12:21:45.362Z,1.00
2018-01-18T12:24:14.149Z,1.10
2018-01-18T12:26:43.930Z,0.90
2018-01-18T12:29:13.554Z,0.97
2018-01-18T12:31:41.922Z,1.10
2018-01-18T12:34:10.161Z,1.10
2018-01-18T12:36:38.478Z,1.87
2018-01-18T12:39:06.743Z,1.40
2018-01-18T12:41:34.994Z,2.93
2018-01-18T12:44:03.237Z,4.00
2018-01-18T12:46:31.766Z,1.50
2018-01-18T12:49:00.672Z,0.93
2018-01-18T12:51:30.329Z,1.57
2018-01-18T12:53:59.353Z,1.40
2018-01-18T12:56:27.653Z,1.13
2018-01-18T12:58:56.953Z,1.20
2018-01-18T13:01:25.361Z,0.80
2018-01-18T13:03:53.603Z,0.87
2018-01-18T13:06:21.857Z,1.70
2018-01-18T13:08:50.170Z,1.20
2018-01-18T13:11:18.572Z,1.20
2018-01-18T13:13:47.585Z,0.93
2018-01-18T13:16:17.233Z,0.90
2018-01-18T13:18:45.521Z,1.20
2018-01-18T13:21:13.765Z,1.23
2018-01-18T13:23:42.129Z,1.40
2018-01-18T13:26:10.385Z,1.00
2018-01-18T13:28:39.689Z,1.70
2018-01-18T13:31:08.985Z,3.73
2018-01-18T13:33:38.051Z,1.67
2018-01-18T13:36:06.245Z,1.70
2018-01-18T13:38:34.510Z,1.47
2018-01-18T13:41:02.802Z,2.20
2018-01-18T13:43:31.025Z,2.20
2018-01-18T13:45:59.293Z,2.00
2018-01-18T13:48:27.541Z,1.97
2018-01-18T13:50:55.785Z,1.63
2018-01-18T13:53:24.456Z,2.00
2018-01-18T13:55:52.798Z,2.03
2018-01-18T13:58:21.809Z,2.70
2018-01-18T14:00:50.081Z,2.37
2018-01-18T14:03:18.329Z,2.33
2018-01-18T14:05:46.579Z,3.50
2018-01-18T14:08:14.847Z,2.60
2018-01-18T14:10:43.090Z,1.73
2018-01-18T14:13:11.338Z,2.30
2018-01-18T14:15:39.877Z,2.10
2018-01-18T14:18:08.113Z,2.80
2018-01-18T14:20:36.357Z,2.27
2018-01-18T14:23:04.654Z,2.30
2018-01-18T14:25:34.849Z,2.40
2018-01-18T14:28:03.213Z,2.80
2018-01-18T14:30:31.477Z,2.20
2018-01-18T14:32:59.725Z,3.43
2018-01-18T14:35:27.964Z,2.53
2018-01-18T14:37:56.322Z,2.70
2018-01-18T14:40:25.479Z,3.57
2018-01-18T14:42:54.481Z,2.53
2018-01-18T14:45:22.753Z,2.93
2018-01-18T14:47:51.173Z,2.70
2018-01-18T14:50:19.413Z,2.50
2018-01-18T14:52:47.694Z,2.10
2018-01-18T14:55:16.049Z,1.97
2018-01-18T14:57:45.062Z,2.20
2018-01-18T15:00:14.702Z,2.27
2018-01-18T15:02:42.993Z,1.93
2018-01-18T15:05:11.241Z,2.00
2018-01-18T15:07:39.532Z,2.50
2018-01-18T15:10:07.757Z,1.90
2018-01-18T15:12:36.003Z,1.90
2018-01-18T15:15:04.261Z,2.10
2018-01-18T15:17:32.781Z,1.70
2018-01-18T15:20:01.009Z,2.23
2018-01-18T15:22:29.795Z,1.40
2018-01-18T15:24:58.041Z,2.03
2018-01-18T15:27:26.285Z,1.43
2018-01-18T15:29:54.563Z,1.93
2018-01-18T15:32:22.818Z,2.30
2018-01-18T15:34:51.054Z,2.70
2018-01-18T15:37:19.763Z,2.03
2018-01-18T15:39:48.977Z,1.63
2018-01-18T15:42:17.357Z,1.77
2018-01-18T15:44:46.133Z,1.83
2018-01-18T15:47:14.629Z,1.83
2018-01-18T15:49:42.854Z,1.70
2018-01-18T15:52:11.890Z,1.70
2018-01-18T15:54:40.137Z,1.47
2018-01-18T15:57:09.565Z,1.67
2018-01-18T15:59:40.038Z,1.30
2018-01-18T16:02:09.050Z,1.20
2018-01-18T16:04:38.094Z,1.53
2018-01-18T16:07:07.681Z,1.70
2018-01-18T16:09:35.914Z,1.37
2018-01-18T16:12:04.150Z,1.53
2018-01-18T16:14:32.761Z,1.63
2018-01-18T16:17:00.994Z,1.13
2018-01-18T16:19:29.233Z,1.40
2018-01-18T16:21:58.253Z,1.20
2018-01-18T16:24:26.613Z,1.30
2018-01-18T16:26:55.722Z,2.00
2018-01-18T16:29:25.584Z,1.20
2018-01-18T16:31:54.821Z,1.27
2018-01-18T16:34:23.824Z,1.60
2018-01-18T16:36:54.034Z,1.43
2018-01-18T16:39:23.069Z,1.20
2018-01-18T16:41:51.370Z,1.10
2018-01-18T16:44:19.869Z,1.47
2018-01-18T16:46:48.127Z,1.20
2018-01-18T16:49:16.505Z,1.20
2018-01-18T16:51:45.269Z,1.20
2018-01-18T16:54:13.573Z,1.30
2018-01-18T16:56:42.109Z,1.20
2018-01-18T16:59:10.529Z,0.90
2018-01-18T17:01:39.965Z,0.97
2018-01-18T17:04:08.341Z,1.60
2018-01-18T17:06:37.507Z,1.20
2018-01-18T18:31:07.898Z,1.37
2018-01-18T18:33:37.306Z,1.27
2018-01-18T18:36:05.998Z,1.60
2018-01-18T18:38:36.894Z,1.40
2018-01-18T18:41:06.129Z,1.57
2018-01-18T18:43:34.621Z,1.80
2018-01-18T18:46:03.850Z,1.23
2018-01-18T18:48:33.135Z,1.30
2018-01-18T18:51:07.738Z,1.40
2018-01-18T18:53:36.390Z,1.50
2018-01-18T18:56:05.677Z,1.70
2018-01-18T18:58:34.485Z,2.10
2018-01-18T19:01:03.925Z,1.60
2018-01-18T19:03:32.625Z,1.90
2018-01-18T19:06:02.893Z,1.37
2018-01-18T19:08:31.241Z,2.07
2018-01-18T19:11:00.257Z,1.20
2018-01-18T19:13:29.710Z,1.23
2018-01-18T19:16:01.921Z,1.67
2018-01-18T19:18:30.383Z,1.43
2018-01-18T19:21:04.096Z,1.20
2018-01-18T19:23:32.637Z,1.30
2018-01-18T19:26:02.666Z,1.40
2018-01-18T19:28:32.302Z,1.50
2018-01-18T19:31:03.950Z,1.70
2018-01-18T19:33:33.548Z,1.40
2018-01-18T19:36:03.984Z,1.17
2018-01-18T19:38:33.025Z,1.47
2018-01-18T19:41:01.349Z,1.37
2018-01-18T19:43:30.653Z,1.40
2018-01-18T19:45:59.061Z,1.70
2018-01-18T19:48:28.172Z,1.20
2018-01-18T19:50:56.643Z,1.60
2018-01-18T19:53:27.087Z,1.03
2018-01-18T19:55:55.425Z,1.63
2018-01-18T19:58:23.809Z,1.73
2018-01-18T20:00:54.297Z,1.17
2018-01-18T20:03:27.276Z,1.47
2018-01-18T20:06:00.386Z,1.40
2018-01-18T20:08:29.903Z,1.80
2018-01-18T20:10:59.161Z,1.50
2018-01-18T20:13:27.663Z,1.40
2018-01-18T20:15:56.838Z,1.40
2018-01-18T20:18:25.206Z,1.53
2018-01-18T20:20:53.694Z,1.73
2018-01-18T20:23:22.057Z,1.33
2018-01-18T20:25:50.542Z,1.60
2018-01-18T20:28:19.990Z,1.50
2018-01-18T20:30:54.810Z,3.00
2018-01-18T20:33:25.449Z,1.60
2018-01-18T20:35:54.616Z,1.57
2018-01-18T20:38:23.333Z,1.90
2018-01-18T20:40:52.982Z,1.43
2018-01-18T20:43:22.221Z,2.00
2018-01-18T20:45:50.739Z,1.77
2018-01-18T20:48:19.009Z,2.17
2018-01-18T20:50:50.338Z,1.83
2018-01-18T20:53:20.005Z,2.00
2018-01-18T20:55:48.479Z,2.23
2018-01-18T20:58:19.023Z,2.00
2018-01-18T21:00:47.726Z,1.77
2018-01-18T21:03:16.003Z,1.70
2018-01-18T21:05:45.953Z,1.97
2018-01-18T21:08:14.310Z,2.37
2018-01-18T21:10:43.649Z,2.33
2018-01-18T21:13:16.495Z,2.37
2018-01-18T21:15:49.669Z,2.53
2018-01-18T21:18:20.177Z,2.60
2018-01-18T21:20:49.466Z,3.07
2018-01-18T21:23:17.902Z,2.87
2018-01-18T21:25:46.213Z,1.90
2018-01-18T21:28:15.205Z,2.73
2018-01-18T21:30:46.438Z,3.10
2018-01-18T21:33:15.840Z,3.00
2018-01-18T21:35:44.552Z,2.67
2018-01-18T21:38:12.965Z,2.80
2018-01-18T21:40:43.223Z,2.57
2018-01-18T21:43:12.221Z,3.60
2018-01-18T21:45:42.418Z,2.80
2018-01-18T21:48:13.445Z,3.20
2018-01-18T21:50:44.701Z,2.33
2018-01-18T21:53:13.085Z,2.50
2018-01-18T21:55:41.525Z,2.60
2018-01-18T21:58:09.842Z,2.33
2018-01-18T22:00:39.755Z,2.40
2018-01-18T22:03:08.755Z,2.27
2018-01-18T22:05:38.442Z,2.20
2018-01-18T22:08:08.843Z,3.80
2018-01-18T22:10:38.719Z,2.50
2018-01-18T22:13:08.635Z,2.00
2018-01-18T22:15:37.901Z,1.97
2018-01-18T22:18:11.539Z,2.20
2018-01-18T22:20:39.990Z,2.40
2018-01-18T22:23:08.368Z,1.73
2018-01-18T22:25:37.125Z,2.03
2018-01-18T22:28:05.525Z,1.53
2018-01-18T22:30:36.157Z,2.23
2018-01-18T22:33:05.614Z,1.90
2018-01-18T22:35:35.789Z,2.10
2018-01-18T22:38:04.171Z,2.30
2018-01-18T22:40:32.630Z,2.40
2018-01-18T22:43:01.238Z,2.50
2018-01-18T22:45:29.474Z,2.90
2018-01-18T22:47:59.341Z,2.63
2018-01-18T22:50:27.665Z,1.97
2018-01-18T22:52:56.181Z,2.20
2018-01-18T22:55:24.558Z,2.53
2018-01-18T22:57:53.985Z,2.23
2018-01-18T23:00:22.390Z,2.33
2018-01-18T23:02:52.046Z,2.50
2018-01-18T23:05:22.485Z,3.33
2018-01-18T23:07:51.796Z,2.77
2018-01-18T23:10:20.221Z,2.40
2018-01-18T23:12:50.392Z,2.57
2018-01-18T23:15:18.638Z,2.90
2018-01-18T23:17:46.902Z,3.17
2018-01-18T23:20:15.153Z,2.60
2018-01-18T23:22:43.589Z,2.40
2018-01-18T23:25:11.901Z,2.63
2018-01-18T23:27:40.145Z,2.20
2018-01-18T23:30:08.419Z,2.43
2018-01-18T23:32:36.662Z,2.70
2018-01-18T23:35:04.905Z,3.70
2018-01-18T23:37:33.143Z,3.40
2018-01-18T23:40:01.837Z,2.87
2018-01-18T23:42:30.225Z,3.60
2018-01-18T23:44:58.463Z,3.50
2018-01-18T23:47:26.896Z,3.50
2018-01-18T23:49:55.106Z,4.17
2018-01-18T23:52:23.337Z,4.17
2018-01-18T23:54:51.601Z,5.00
2018-01-18T23:57:19.837Z,4.80
2018-01-18T23:59:48.087Z,4.20
